SAZR/RSA METAR and TAF weather

Enter ICAO airport designator
Station Type Date Time Source
SAZR METAR 2021/04/23 19:45 UTC NOAA

SAZR 231945Z 25004KT 9999 FEW010 FEW030 BKN100 16/15 Q1013


Station Type Date Time Source
SAZR Decoded METAR 2021/04/23 19:45 UTC NOAA

Santa Rosa Aerodrome, Argentina (SAZR) 36-34S 064-16W 191M
Apr 23, 2021 - 03:45 PM EDT / 2021.04.23 1945 UTC
Wind: from the WSW (250 degrees) at 5 MPH (4 KT):0
Visibility: greater than 7 mile(s):0
Sky conditions: mostly cloudy
Temperature: 60 F (16 C)
Dew Point: 59 F (15 C)
Relative Humidity: 93%
Pressure (altimeter): 29.91 in. Hg (1013 hPa)
ob: SAZR 231945Z 25004KT 9999 FEW010 FEW030 BKN100 16/15 Q1013
cycle: 20

Station Type Date Time Source
SAZR TAF 2021/03/28 06:24 UTC NOAA

TAF SAZR 280500Z 2806/2906 VRB03KT CAVOK TX22/2818Z TN08/2809Z
BECMG 2808/2810 5000 BR NSC
BECMG 2811/2814 18005KT CAVOK

Example: see airport list